createdAt,value
2022-08-04T00:00:08.736Z,18.30
2022-08-04T00:03:00.044Z,18.34
2022-08-04T00:05:40.994Z,18.30
2022-08-04T00:08:20.016Z,18.30
2022-08-04T00:10:51.725Z,18.34
2022-08-04T00:13:24.430Z,18.37
2022-08-04T00:15:58.687Z,18.30
2022-08-04T00:18:31.217Z,18.21
2022-08-04T00:21:05.593Z,18.19
2022-08-04T00:24:12.246Z,18.28
2022-08-04T00:26:26.304Z,18.40
2022-08-04T00:28:54.484Z,18.37
2022-08-04T00:31:33.179Z,18.36
2022-08-04T00:34:14.078Z,18.24
2022-08-04T00:36:46.128Z,18.24
2022-08-04T00:39:15.968Z,18.25
2022-08-04T00:41:56.550Z,18.12
2022-08-04T00:44:38.647Z,18.16
2022-08-04T00:47:20.697Z,17.99
2022-08-04T00:50:05.468Z,18.00
2022-08-04T00:52:52.720Z,17.90
2022-08-04T00:55:46.739Z,17.89
2022-08-04T00:58:29.045Z,17.87
2022-08-04T01:01:02.724Z,17.83
2022-08-04T01:03:52.052Z,17.77
2022-08-04T01:06:38.184Z,17.77
2022-08-04T01:09:27.012Z,17.76
2022-08-04T01:12:18.253Z,17.73
2022-08-04T01:15:02.331Z,17.74
2022-08-04T01:17:44.112Z,17.70
2022-08-04T01:20:18.483Z,17.60
2022-08-04T01:23:23.617Z,17.60
2022-08-04T01:26:42.611Z,17.63
2022-08-04T01:29:15.863Z,17.63
2022-08-04T01:32:04.346Z,17.60
2022-08-04T01:34:37.788Z,17.64
2022-08-04T01:37:21.048Z,17.72
2022-08-04T01:39:52.973Z,17.73
2022-08-04T01:42:32.196Z,17.73
2022-08-04T01:45:03.660Z,17.74
2022-08-04T01:47:32.329Z,17.65
2022-08-04T01:50:08.302Z,17.60
2022-08-04T01:52:37.958Z,17.53
2022-08-04T01:55:09.425Z,17.40
2022-08-04T01:57:42.494Z,17.34
2022-08-04T02:00:14.008Z,17.24
2022-08-04T02:02:42.630Z,17.33
2022-08-04T02:05:12.239Z,17.27
2022-08-04T02:07:52.361Z,17.19
2022-08-04T02:10:29.823Z,17.20
2022-08-04T02:13:09.832Z,17.20
2022-08-04T02:15:47.777Z,17.16
2022-08-04T02:18:24.307Z,17.17
2022-08-04T02:20:58.671Z,17.16
2022-08-04T02:23:32.563Z,17.19
2022-08-04T02:26:03.621Z,17.15
2022-08-04T02:28:37.904Z,17.10
2022-08-04T02:31:19.656Z,17.15
2022-08-04T02:33:53.887Z,17.10
2022-08-04T02:36:29.915Z,17.01
2022-08-04T02:39:01.219Z,16.90
2022-08-04T02:41:30.846Z,16.86
2022-08-04T02:44:01.035Z,16.79
2022-08-04T02:46:32.038Z,16.73
2022-08-04T02:49:02.787Z,16.72
2022-08-04T02:51:35.046Z,16.67
2022-08-04T02:54:06.474Z,16.67
2022-08-04T02:56:37.399Z,16.66
2022-08-04T02:59:08.151Z,16.61
2022-08-04T03:01:38.226Z,16.53
2022-08-04T03:04:38.938Z,16.51
2022-08-04T03:07:34.287Z,16.51
2022-08-04T03:10:40.446Z,16.52
2022-08-04T03:13:39.720Z,16.48
2022-08-04T03:16:52.444Z,16.54
2022-08-04T03:20:01.852Z,16.59
2022-08-04T03:23:13.593Z,16.63
2022-08-04T03:26:20.488Z,16.65
2022-08-04T03:29:36.194Z,16.69
2022-08-04T03:32:38.645Z,16.75
2022-08-04T03:35:31.289Z,16.77
2022-08-04T03:38:18.782Z,16.84
2022-08-04T03:41:17.757Z,16.91
2022-08-04T03:44:29.501Z,16.88
2022-08-04T03:47:27.207Z,16.91
2022-08-04T03:50:29.943Z,16.88
2022-08-04T03:53:33.460Z,16.88
2022-08-04T03:56:33.071Z,16.86
2022-08-04T03:59:31.092Z,16.78
2022-08-04T04:02:34.177Z,16.82
2022-08-04T04:05:30.602Z,16.85
2022-08-04T04:08:33.672Z,16.79
2022-08-04T04:11:29.642Z,16.79
2022-08-04T04:14:20.775Z,16.85
2022-08-04T04:17:05.361Z,16.88
2022-08-04T04:19:52.825Z,16.89
2022-08-04T04:22:39.701Z,16.92
2022-08-04T04:25:32.326Z,16.91
2022-08-04T04:28:46.599Z,16.93
2022-08-04T04:31:36.065Z,17.00
2022-08-04T04:34:18.223Z,16.96
2022-08-04T04:36:59.253Z,16.95
2022-08-04T04:39:39.914Z,16.99
2022-08-04T04:42:39.478Z,16.98
2022-08-04T04:45:20.396Z,17.00
2022-08-04T04:48:08.441Z,17.01
2022-08-04T04:50:52.782Z,16.94
2022-08-04T04:53:28.573Z,17.03
2022-08-04T04:56:04.676Z,17.04
2022-08-04T04:58:35.385Z,17.14
2022-08-04T05:01:18.104Z,17.14
2022-08-04T05:04:10.038Z,17.22
2022-08-04T05:06:54.243Z,17.12
2022-08-04T05:09:38.712Z,17.06
2022-08-04T05:14:33.310Z,17.18
2022-08-04T05:15:32.493Z,17.29
2022-08-04T05:18:03.366Z,17.35
2022-08-04T05:20:45.106Z,17.43
2022-08-04T05:23:17.021Z,17.54
2022-08-04T05:25:50.098Z,17.58
2022-08-04T05:28:30.978Z,17.71
2022-08-04T05:31:02.105Z,17.88
2022-08-04T05:33:35.936Z,18.01
2022-08-04T05:36:21.715Z,18.09
2022-08-04T05:39:03.298Z,18.24
2022-08-04T05:41:45.656Z,18.41
2022-08-04T05:44:17.016Z,18.55
2022-08-04T05:46:53.808Z,18.68
2022-08-04T05:49:24.398Z,18.83
2022-08-04T05:51:55.092Z,18.90
2022-08-04T05:54:24.196Z,19.10
2022-08-04T05:56:52.651Z,19.22
2022-08-04T05:59:23.729Z,19.38
2022-08-04T06:01:55.477Z,19.54
2022-08-04T06:04:26.307Z,19.63
2022-08-04T06:06:56.465Z,19.64
2022-08-04T06:09:24.799Z,19.65
2022-08-04T06:12:03.019Z,19.65
2022-08-04T06:14:36.897Z,19.64
2022-08-04T06:18:33.110Z,19.65
2022-08-04T06:20:18.419Z,19.70
2022-08-04T06:22:48.537Z,19.71
2022-08-04T06:25:20.943Z,19.79
2022-08-04T06:27:51.177Z,19.81
2022-08-04T06:30:21.069Z,19.96
2022-08-04T06:33:03.506Z,20.09
2022-08-04T06:35:34.510Z,20.24
2022-08-04T06:38:04.608Z,20.42
2022-08-04T06:40:34.656Z,20.66
2022-08-04T06:43:04.193Z,20.62
2022-08-04T06:45:35.321Z,20.64
2022-08-04T06:48:04.837Z,20.68
2022-08-04T06:51:27.745Z,20.67
2022-08-04T06:53:26.203Z,20.51
2022-08-04T06:55:56.734Z,20.62
2022-08-04T06:58:25.901Z,20.61
2022-08-04T07:01:01.706Z,20.71
2022-08-04T07:03:32.321Z,20.72
2022-08-04T07:06:06.452Z,20.77
2022-08-04T07:08:44.573Z,20.79
2022-08-04T07:11:13.643Z,20.93
2022-08-04T07:13:45.378Z,21.00
2022-08-04T07:16:16.036Z,21.13
2022-08-04T07:18:44.240Z,21.26
2022-08-04T07:21:12.848Z,21.37
2022-08-04T07:23:40.968Z,21.46
2022-08-04T07:26:13.083Z,21.49
2022-08-04T07:28:42.568Z,21.57
2022-08-04T07:31:33.852Z,21.54
2022-08-04T07:34:17.726Z,21.65
2022-08-04T07:36:55.209Z,21.85
2022-08-04T07:39:28.299Z,21.97
2022-08-04T07:42:01.196Z,21.96
2022-08-04T07:44:31.589Z,22.16
2022-08-04T07:47:00.399Z,22.27
2022-08-04T07:49:55.823Z,22.47
2022-08-04T07:52:17.846Z,22.66
2022-08-04T07:54:46.785Z,22.78
2022-08-04T07:57:20.958Z,22.97
2022-08-04T08:00:08.108Z,23.20
2022-08-04T08:02:36.720Z,23.32
2022-08-04T08:05:05.610Z,23.47
2022-08-04T08:07:33.751Z,23.70
2022-08-04T08:10:01.786Z,23.86
2022-08-04T08:12:35.113Z,23.97
2022-08-04T08:15:19.547Z,24.09
2022-08-04T08:17:58.624Z,24.21
2022-08-04T08:20:31.653Z,24.29
2022-08-04T08:23:01.166Z,24.34
2022-08-04T08:25:30.780Z,24.45
2022-08-04T08:28:00.807Z,24.68
2022-08-04T08:30:32.143Z,24.76
2022-08-04T08:33:05.780Z,24.78
2022-08-04T08:35:53.431Z,25.03
2022-08-04T08:38:32.178Z,25.19
2022-08-04T08:41:19.469Z,25.14
2022-08-04T08:44:07.662Z,25.27
2022-08-04T08:46:53.827Z,25.38
2022-08-04T08:50:02.848Z,25.55
2022-08-04T08:52:56.300Z,25.69
2022-08-04T08:55:46.997Z,25.78
2022-08-04T08:58:30.907Z,25.98
2022-08-04T09:01:11.455Z,26.00
2022-08-04T09:04:03.220Z,26.19
2022-08-04T09:06:55.393Z,26.54
2022-08-04T09:09:50.816Z,26.57
2022-08-04T09:12:29.344Z,26.79
2022-08-04T09:15:05.330Z,27.06
2022-08-04T09:17:43.238Z,27.13
2022-08-04T09:20:19.689Z,27.19
2022-08-04T09:22:53.060Z,27.13
2022-08-04T09:25:26.278Z,27.11
2022-08-04T09:27:56.715Z,27.35
2022-08-04T09:30:33.888Z,27.53
2022-08-04T09:33:17.371Z,27.49
2022-08-04T09:35:58.301Z,27.69
2022-08-04T09:38:36.109Z,27.78
2022-08-04T09:41:20.658Z,27.96
2022-08-04T09:44:49.356Z,28.09
2022-08-04T09:46:54.450Z,28.33
2022-08-04T09:49:31.550Z,28.30
2022-08-04T09:52:09.019Z,28.25
2022-08-04T09:54:49.650Z,28.15
2022-08-04T09:57:37.791Z,27.97
2022-08-04T10:00:09.156Z,28.12
2022-08-04T10:02:39.769Z,27.93
2022-08-04T10:05:15.945Z,27.82
2022-08-04T10:07:59.617Z,27.88
2022-08-04T10:10:56.042Z,28.08
2022-08-04T10:13:31.107Z,28.21
2022-08-04T10:16:26.140Z,28.20
2022-08-04T10:19:08.042Z,28.49
2022-08-04T10:21:59.082Z,28.61
2022-08-04T10:24:40.339Z,28.82
2022-08-04T10:27:12.073Z,28.80
2022-08-04T10:29:45.553Z,28.83
2022-08-04T10:32:19.360Z,28.73
2022-08-04T10:35:02.603Z,28.78
2022-08-04T10:37:59.007Z,28.72
2022-08-04T10:40:45.193Z,28.48
2022-08-04T10:43:26.948Z,28.29
2022-08-04T10:45:59.838Z,28.49
2022-08-04T10:48:37.516Z,28.89
2022-08-04T10:51:20.098Z,29.26
2022-08-04T10:53:55.417Z,29.84
2022-08-04T10:56:30.936Z,30.33
2022-08-04T10:59:04.289Z,30.70
2022-08-04T11:02:00.596Z,31.14
2022-08-04T11:04:30.803Z,31.58
2022-08-04T11:07:00.654Z,32.04
2022-08-04T11:09:31.644Z,32.26
2022-08-04T11:12:08.217Z,32.03
2022-08-04T11:14:41.459Z,32.20
2022-08-04T11:17:16.755Z,32.53
2022-08-04T11:19:53.907Z,32.32
2022-08-04T11:22:27.711Z,31.92
2022-08-04T11:25:09.652Z,31.55
2022-08-04T11:27:45.377Z,31.66
2022-08-04T11:30:17.786Z,31.78
2022-08-04T11:32:54.690Z,32.05
2022-08-04T11:35:32.056Z,32.35
2022-08-04T11:38:10.283Z,31.65
2022-08-04T11:41:02.213Z,31.77
2022-08-04T11:44:01.608Z,32.16
2022-08-04T11:46:30.465Z,31.97
2022-08-04T11:49:04.452Z,32.18
2022-08-04T11:51:35.069Z,32.34
2022-08-04T11:54:03.332Z,32.71
2022-08-04T11:56:37.158Z,33.57
2022-08-04T11:59:08.456Z,33.55
2022-08-04T12:01:48.920Z,33.65
2022-08-04T12:04:26.847Z,33.27
2022-08-04T12:07:21.618Z,32.83
2022-08-04T12:09:59.863Z,32.49
2022-08-04T12:12:36.090Z,31.96
2022-08-04T12:15:15.498Z,31.79
2022-08-04T12:17:52.534Z,31.94
2022-08-04T12:20:31.818Z,31.78
2022-08-04T12:23:16.719Z,31.40
2022-08-04T12:25:49.426Z,31.18
2022-08-04T12:28:25.997Z,31.23
2022-08-04T12:31:04.410Z,31.11
2022-08-04T12:34:04.453Z,31.02
2022-08-04T12:36:34.908Z,30.76
2022-08-04T12:39:10.650Z,30.67
2022-08-04T12:41:46.653Z,30.42
2022-08-04T12:44:36.126Z,30.29
2022-08-04T12:47:28.423Z,30.16
2022-08-04T12:50:00.933Z,30.12
2022-08-04T12:53:00.485Z,29.91
2022-08-04T12:55:23.989Z,29.80
2022-08-04T12:57:53.494Z,29.63
2022-08-04T13:00:31.341Z,29.57
2022-08-04T13:03:09.618Z,29.45
2022-08-04T13:05:40.369Z,29.59
2022-08-04T13:08:10.360Z,29.66
2022-08-04T13:10:40.716Z,30.43
2022-08-04T13:13:15.398Z,31.52
2022-08-04T13:15:47.559Z,32.58
2022-08-04T13:18:29.661Z,33.33
2022-08-04T13:21:20.866Z,33.88
2022-08-04T13:24:20.573Z,34.73
2022-08-04T13:26:55.357Z,35.02
2022-08-04T13:30:00.304Z,35.27
2022-08-04T13:32:20.458Z,35.61
2022-08-04T13:34:52.435Z,35.56
2022-08-04T13:37:23.707Z,35.74
2022-08-04T13:39:55.552Z,35.94
2022-08-04T13:42:26.833Z,36.04
2022-08-04T13:44:57.286Z,36.43
2022-08-04T13:47:31.421Z,36.38
2022-08-04T13:50:26.308Z,36.22
2022-08-04T13:52:55.990Z,36.19
2022-08-04T13:55:27.655Z,36.73
2022-08-04T13:58:00.368Z,37.11
2022-08-04T14:00:41.641Z,37.03
2022-08-04T14:03:22.999Z,37.16
2022-08-04T14:06:15.813Z,37.05
2022-08-04T14:08:55.520Z,36.65
2022-08-04T14:12:09.050Z,36.65
2022-08-04T14:14:23.843Z,36.21
2022-08-04T14:17:04.112Z,36.62
2022-08-04T14:19:51.447Z,36.21
2022-08-04T14:22:34.843Z,36.56
2022-08-04T14:25:06.084Z,36.85
2022-08-04T14:27:43.955Z,36.78
2022-08-04T14:30:27.855Z,37.16
2022-08-04T14:34:01.917Z,37.24
2022-08-04T14:36:01.716Z,37.35
2022-08-04T14:38:48.260Z,36.60
2022-08-04T14:41:17.822Z,36.73
2022-08-04T14:43:47.868Z,36.33
2022-08-04T14:46:16.778Z,35.92
2022-08-04T14:49:10.133Z,35.18
2022-08-04T14:51:42.228Z,35.22
2022-08-04T14:54:17.260Z,35.39
2022-08-04T14:56:54.778Z,35.59
2022-08-04T14:59:24.579Z,35.91
2022-08-04T15:02:01.150Z,35.88
2022-08-04T15:04:32.306Z,35.82
2022-08-04T15:07:04.699Z,35.26
2022-08-04T15:09:33.841Z,34.34
2022-08-04T15:12:02.786Z,33.94
2022-08-04T15:14:37.586Z,33.36
2022-08-04T15:17:12.401Z,32.71
2022-08-04T15:19:56.805Z,32.34
2022-08-04T15:22:27.132Z,31.97
2022-08-04T15:24:56.084Z,31.52
2022-08-04T15:27:27.159Z,31.47
2022-08-04T15:30:01.532Z,31.28
2022-08-04T15:32:31.828Z,31.06
2022-08-04T15:35:03.854Z,31.09
2022-08-04T15:37:46.893Z,30.91
2022-08-04T15:40:17.887Z,30.89
2022-08-04T15:43:32.955Z,30.86
2022-08-04T15:46:43.241Z,30.68
2022-08-04T15:48:53.160Z,30.63
2022-08-04T15:51:32.153Z,30.60
2022-08-04T15:54:27.900Z,30.59
2022-08-04T15:57:01.955Z,30.75
2022-08-04T16:00:15.205Z,30.77
2022-08-04T16:02:44.674Z,31.17
2022-08-04T16:05:39.327Z,31.79
2022-08-04T16:08:17.992Z,32.42
2022-08-04T16:10:52.575Z,32.81
2022-08-04T16:13:22.325Z,33.08
2022-08-04T16:15:52.998Z,32.99
2022-08-04T16:18:37.426Z,32.62
2022-08-04T16:21:07.170Z,31.94
2022-08-04T16:24:05.293Z,31.88
2022-08-04T16:26:55.077Z,32.24
2022-08-04T16:29:39.147Z,32.42
2022-08-04T16:32:20.157Z,32.59
2022-08-04T16:34:54.794Z,33.00
2022-08-04T16:37:30.268Z,33.22
2022-08-04T16:40:28.569Z,33.51
2022-08-04T16:43:07.205Z,33.60
2022-08-04T16:45:47.319Z,33.49
2022-08-04T16:48:16.830Z,33.53
2022-08-04T16:50:50.888Z,33.45
2022-08-04T16:53:57.834Z,33.23
2022-08-04T16:56:10.954Z,32.73
2022-08-04T16:58:53.788Z,32.52
2022-08-04T17:01:33.236Z,31.94
2022-08-04T17:04:06.313Z,31.50
2022-08-04T17:06:36.403Z,31.08
2022-08-04T17:09:06.992Z,30.85
2022-08-04T17:11:35.171Z,30.61
2022-08-04T17:14:06.331Z,30.54
2022-08-04T17:16:36.361Z,30.29
2022-08-04T17:19:19.995Z,30.00
2022-08-04T17:21:58.832Z,29.80
2022-08-04T17:24:30.779Z,29.65
2022-08-04T17:26:59.223Z,29.66
2022-08-04T17:29:43.451Z,29.56
2022-08-04T17:32:15.984Z,29.41
2022-08-04T17:34:48.669Z,29.47
2022-08-04T17:37:38.476Z,29.26
2022-08-04T17:40:11.438Z,29.12
2022-08-04T17:42:41.995Z,28.99
2022-08-04T17:48:02.877Z,28.75
2022-08-04T17:50:35.609Z,28.69
2022-08-04T17:53:12.563Z,28.68
2022-08-04T17:55:43.288Z,28.58
2022-08-04T17:58:20.903Z,28.52
2022-08-04T18:01:22.591Z,28.42
2022-08-04T18:03:52.886Z,28.36
2022-08-04T18:06:23.067Z,28.30
2022-08-04T18:08:57.763Z,28.18
2022-08-04T18:11:29.821Z,28.11
2022-08-04T18:14:09.786Z,28.08
2022-08-04T18:16:45.738Z,28.00
2022-08-04T18:19:18.857Z,27.99
2022-08-04T18:21:59.558Z,27.92
2022-08-04T18:24:36.044Z,27.88
2022-08-04T18:27:20.149Z,27.86
2022-08-04T18:30:15.372Z,27.77
2022-08-04T18:32:51.292Z,27.67
2022-08-04T18:35:25.753Z,27.58
2022-08-04T18:38:23.466Z,27.45
2022-08-04T18:40:53.162Z,27.42
2022-08-04T18:46:14.709Z,27.25
2022-08-04T18:48:52.209Z,27.19
2022-08-04T18:54:10.138Z,27.08
2022-08-04T18:56:38.308Z,27.09
2022-08-04T18:59:26.248Z,27.09
2022-08-04T19:02:13.040Z,27.01
2022-08-04T19:04:44.536Z,26.96
2022-08-04T19:07:29.614Z,26.97
2022-08-04T19:09:59.872Z,26.93
2022-08-04T19:12:29.079Z,26.98
2022-08-04T19:15:08.660Z,26.98
2022-08-04T19:17:53.506Z,27.02
2022-08-04T19:20:27.186Z,26.90
2022-08-04T19:24:10.978Z,26.87
2022-08-04T19:26:02.869Z,26.80
2022-08-04T19:28:35.142Z,26.66
2022-08-04T19:31:04.200Z,26.50
2022-08-04T19:33:58.710Z,26.47
2022-08-04T19:36:27.800Z,26.45
2022-08-04T19:38:58.083Z,26.43
2022-08-04T19:41:26.985Z,26.27
2022-08-04T19:43:55.773Z,26.11
2022-08-04T19:46:25.609Z,26.08
2022-08-04T19:49:00.295Z,26.11
2022-08-04T19:51:32.673Z,25.96
2022-08-04T19:54:02.711Z,25.89
2022-08-04T19:56:40.233Z,25.70
2022-08-04T19:59:11.637Z,25.56
2022-08-04T20:01:45.391Z,25.48
2022-08-04T20:04:13.926Z,25.41
2022-08-04T20:06:43.655Z,25.28
2022-08-04T20:09:24.652Z,25.20
2022-08-04T20:11:54.562Z,25.09
2022-08-04T20:14:32.376Z,24.99
2022-08-04T20:17:03.195Z,24.92
2022-08-04T20:19:37.946Z,24.80
2022-08-04T20:22:50.977Z,24.79
2022-08-04T20:25:10.968Z,24.76
2022-08-04T20:28:00.125Z,24.79
2022-08-04T20:30:29.117Z,24.78
2022-08-04T20:32:57.199Z,24.72
2022-08-04T20:35:27.097Z,24.69
2022-08-04T20:38:01.359Z,24.69
2022-08-04T20:40:30.056Z,24.70
2022-08-04T20:42:58.334Z,24.63
2022-08-04T20:45:55.841Z,24.60
2022-08-04T20:48:15.093Z,24.51
2022-08-04T20:50:46.161Z,24.44
2022-08-04T20:53:16.953Z,24.39
2022-08-04T20:55:55.102Z,24.29
2022-08-04T20:58:27.719Z,24.25
2022-08-04T21:00:57.236Z,24.10
2022-08-04T21:03:49.272Z,24.08
2022-08-04T21:06:13.455Z,23.96
2022-08-04T21:08:57.233Z,23.83
2022-08-04T21:11:32.622Z,23.71
2022-08-04T21:14:01.204Z,23.60
2022-08-04T21:16:53.927Z,23.58
2022-08-04T21:19:17.714Z,23.47
2022-08-04T21:21:53.247Z,23.40
2022-08-04T21:24:26.009Z,23.30
2022-08-04T21:26:58.095Z,23.28
2022-08-04T21:29:29.570Z,23.16
2022-08-04T21:32:05.878Z,23.15
2022-08-04T21:34:39.632Z,23.03
2022-08-04T21:37:10.065Z,23.01
2022-08-04T21:42:42.607Z,22.82
2022-08-04T21:45:17.579Z,22.74
2022-08-04T21:47:49.514Z,22.62
2022-08-04T21:53:07.254Z,22.45
2022-08-04T21:56:06.355Z,22.48
2022-08-04T21:58:32.359Z,22.41
2022-08-04T22:01:01.006Z,22.36
2022-08-04T22:03:52.694Z,22.32
2022-08-04T22:09:14.748Z,22.21
2022-08-04T22:11:50.319Z,22.15
2022-08-04T22:14:29.115Z,22.16
2022-08-04T22:17:02.475Z,22.11
2022-08-04T22:19:50.739Z,22.11
2022-08-04T22:22:25.144Z,22.08
2022-08-04T22:24:55.251Z,22.06
2022-08-04T22:27:42.261Z,22.02
2022-08-04T22:30:17.674Z,21.99
2022-08-04T22:32:47.113Z,21.90
2022-08-04T22:35:36.568Z,21.88
2022-08-04T22:38:06.898Z,21.74
2022-08-04T22:40:38.359Z,21.76
2022-08-04T22:43:33.276Z,21.71
2022-08-04T22:45:55.731Z,21.74
2022-08-04T22:48:23.948Z,21.80
2022-08-04T22:50:56.099Z,21.76
2022-08-04T22:53:24.402Z,21.71
2022-08-04T22:56:06.557Z,21.60
2022-08-04T22:58:40.179Z,21.52
2022-08-04T23:01:08.979Z,21.37
2022-08-04T23:03:38.462Z,21.25
2022-08-04T23:06:11.072Z,21.17
2022-08-04T23:08:43.282Z,21.05
2022-08-04T23:11:15.495Z,21.07
2022-08-04T23:13:45.494Z,21.05
2022-08-04T23:16:15.340Z,21.02
2022-08-04T23:18:49.040Z,20.92
2022-08-04T23:21:24.412Z,20.83
2022-08-04T23:24:02.237Z,20.81
2022-08-04T23:26:31.314Z,20.80
2022-08-04T23:29:03.734Z,20.74
2022-08-04T23:31:40.566Z,20.76
2022-08-04T23:34:18.679Z,20.76
2022-08-04T23:36:47.524Z,20.76
2022-08-04T23:39:15.908Z,20.74
2022-08-04T23:41:53.611Z,20.70
2022-08-04T23:44:26.813Z,20.69
2022-08-04T23:47:01.764Z,20.72
2022-08-04T23:49:43.389Z,20.70
2022-08-04T23:52:12.962Z,20.72
2022-08-04T23:54:52.032Z,20.62
2022-08-04T23:57:21.080Z,20.61
2022-08-04T23:59:55.065Z,20.51
